This is the latest recevied weather packets stored in our database for station/object DELTON-WX. If no packets are shown the sender has not sent any weather packets the latest 10 day(s).
| Time | Temp. | Humidity | Pressure | Rain* | Wind** | Luminosity | Snow |
|---|---|---|---|---|---|---|---|
| 1777658476 | 6.11° C | 64% | 982.1 hPa | 0 mm | - | - | - |
| 1777657546 | 6.67° C | 60% | 983.1 hPa | 0 mm | - | - | - |
| 1777656661 | 6.67° C | 58% | 982.5 hPa | 0 mm | - | - | - |
| 1777655745 | 7.22° C | 58% | 982.5 hPa | 0 mm | - | - | - |
| 1777654872 | 7.22° C | 58% | 982.5 hPa | 0 mm | - | - | - |
| 1777653945 | 6.67° C | 64% | 981.1 hPa | 0 mm | - | - | - |
| 1777653065 | 6.67° C | 65% | 981.5 hPa | 0 mm | - | - | - |
| 1777652145 | 6.67° C | 65% | 981.5 hPa | 0 mm | - | - | - |
| 1777651281 | 6.67° C | 65% | 981.5 hPa | 0 mm | - | - | - |
| 1777650344 | 6.67° C | 71% | 981.6 hPa | 0 mm | - | - | - |
| 1777649461 | 6.11° C | 66% | 982.2 hPa | 0 mm | - | - | - |
| 1777648545 | 6.67° C | 66% | 982.2 hPa | 0 mm | - | - | - |
| 1777647676 | 6.67° C | 66% | 982.2 hPa | 0 mm | - | - | - |
| 1777646745 | 6.67° C | 75% | 981.2 hPa | 0 mm | - | - | - |
| 1777645864 | 6.67° C | 67% | 981.9 hPa | 0 mm | - | - | - |
| 1777644945 | 6.11° C | 67% | 981.9 hPa | 0 mm | - | - | - |
| 1777644085 | 6.11° C | 67% | 981.9 hPa | 0 mm | - | - | - |
| 1777643145 | 5.56° C | 71% | 981.3 hPa | 0 mm | - | - | - |
| 1777642263 | 5° C | 71% | 981.3 hPa | 0 mm | - | - | - |
| 1777641345 | 5° C | 71% | 981.3 hPa | 0 mm | - | - | - |
| 1777640475 | 4.44° C | 71% | 981.3 hPa | 0 mm | - | - | - |
| 1777639545 | 4.44° C | 82% | 980.9 hPa | 0 mm | - | - | - |
| 1777638662 | 4.44° C | 89% | 981 hPa | 0 mm | - | - | - |
| 1777637746 | 3.89° C | 89% | 981 hPa | 0 mm | - | - | - |
| 1777636878 | 3.89° C | 89% | 981 hPa | 0 mm | - | - | - |
* Rain latest hour (hover to see other rain measurements)
** Current wind speed in m/s (hover to see current wind gust speed)